sensor_id;sensor_type;location;lat;lon;timestamp;temperature;humidity
17851;DHT22;9051;51.548;14.348;2022-12-29T00:02:09;7.60;99.90
17851;DHT22;9051;51.548;14.348;2022-12-29T00:04:41;7.60;99.90
17851;DHT22;9051;51.548;14.348;2022-12-29T00:07:15;7.70;99.90
17851;DHT22;9051;51.548;14.348;2022-12-29T00:09:47;7.70;99.90
17851;DHT22;9051;51.548;14.348;2022-12-29T00:12:19;7.70;99.90
17851;DHT22;9051;51.548;14.348;2022-12-29T00:14:51;7.70;99.90
17851;DHT22;9051;51.548;14.348;2022-12-29T00:17:41;7.80;99.90
17851;DHT22;9051;51.548;14.348;2022-12-29T00:20:13;7.80;99.90
17851;DHT22;9051;51.548;14.348;2022-12-29T00:23:15;7.80;99.90
17851;DHT22;9051;51.548;14.348;2022-12-29T00:26:11;7.90;99.90
17851;DHT22;9051;51.548;14.348;2022-12-29T00:29:01;8.00;99.90
17851;DHT22;9051;51.548;14.348;2022-12-29T00:31:52;8.00;99.90
17851;DHT22;9051;51.548;14.348;2022-12-29T00:34:41;8.00;99.90
17851;DHT22;9051;51.548;14.348;2022-12-29T00:37:31;8.10;99.90
17851;DHT22;9051;51.548;14.348;2022-12-29T00:40:19;8.00;99.90
17851;DHT22;9051;51.548;14.348;2022-12-29T00:43:08;8.10;99.90
17851;DHT22;9051;51.548;14.348;2022-12-29T00:45:57;8.00;99.90
17851;DHT22;9051;51.548;14.348;2022-12-29T00:48:29;7.90;99.90
17851;DHT22;9051;51.548;14.348;2022-12-29T00:51:18;7.90;99.90
17851;DHT22;9051;51.548;14.348;2022-12-29T00:53:51;7.80;99.90
17851;DHT22;9051;51.548;14.348;2022-12-29T00:56:24;7.70;99.90
17851;DHT22;9051;51.548;14.348;2022-12-29T00:59:00;7.60;99.90
17851;DHT22;9051;51.548;14.348;2022-12-29T01:01:32;7.60;99.90
17851;DHT22;9051;51.548;14.348;2022-12-29T01:04:05;7.50;99.90
17851;DHT22;9051;51.548;14.348;2022-12-29T01:06:40;7.40;99.90
17851;DHT22;9051;51.548;14.348;2022-12-29T01:09:12;7.40;99.90
17851;DHT22;9051;51.548;14.348;2022-12-29T01:12:04;7.30;99.90
17851;DHT22;9051;51.548;14.348;2022-12-29T01:14:37;7.30;99.90
17851;DHT22;9051;51.548;14.348;2022-12-29T01:17:09;7.30;99.90
17851;DHT22;9051;51.548;14.348;2022-12-29T01:19:41;7.20;99.90
17851;DHT22;9051;51.548;14.348;2022-12-29T01:22:13;7.20;99.90
17851;DHT22;9051;51.548;14.348;2022-12-29T01:24:45;7.20;99.90
17851;DHT22;9051;51.548;14.348;2022-12-29T01:27:19;7.10;99.90
17851;DHT22;9051;51.548;14.348;2022-12-29T01:29:51;7.20;99.90
17851;DHT22;9051;51.548;14.348;2022-12-29T01:32:23;7.10;99.90
17851;DHT22;9051;51.548;14.348;2022-12-29T01:34:55;7.10;99.90
17851;DHT22;9051;51.548;14.348;2022-12-29T01:37:27;7.20;99.90
17851;DHT22;9051;51.548;14.348;2022-12-29T01:40:00;7.20;99.90
17851;DHT22;9051;51.548;14.348;2022-12-29T01:42:33;7.20;99.90
17851;DHT22;9051;51.548;14.348;2022-12-29T01:45:09;7.20;99.90
17851;DHT22;9051;51.548;14.348;2022-12-29T01:47:45;7.20;99.90
17851;DHT22;9051;51.548;14.348;2022-12-29T01:50:22;7.20;99.90
17851;DHT22;9051;51.548;14.348;2022-12-29T01:52:57;7.20;99.90
17851;DHT22;9051;51.548;14.348;2022-12-29T01:55:35;7.10;99.90
17851;DHT22;9051;51.548;14.348;2022-12-29T01:58:14;7.10;99.90
17851;DHT22;9051;51.548;14.348;2022-12-29T02:00:49;7.10;99.90
17851;DHT22;9051;51.548;14.348;2022-12-29T02:03:22;7.10;99.90
17851;DHT22;9051;51.548;14.348;2022-12-29T02:05:58;7.20;99.90
17851;DHT22;9051;51.548;14.348;2022-12-29T02:08:31;7.20;99.90
17851;DHT22;9051;51.548;14.348;2022-12-29T02:11:03;7.20;99.90
17851;DHT22;9051;51.548;14.348;2022-12-29T02:13:39;7.20;99.90
17851;DHT22;9051;51.548;14.348;2022-12-29T02:16:21;7.30;99.90
17851;DHT22;9051;51.548;14.348;2022-12-29T02:22:02;7.30;99.90
17851;DHT22;9051;51.548;14.348;2022-12-29T02:24:50;7.30;99.90
17851;DHT22;9051;51.548;14.348;2022-12-29T02:27:44;7.30;99.90
17851;DHT22;9051;51.548;14.348;2022-12-29T02:30:40;7.30;99.90
17851;DHT22;9051;51.548;14.348;2022-12-29T02:33:23;7.40;99.90
17851;DHT22;9051;51.548;14.348;2022-12-29T02:36:24;7.40;99.90
17851;DHT22;9051;51.548;14.348;2022-12-29T02:39:05;7.40;99.90
17851;DHT22;9051;51.548;14.348;2022-12-29T02:41:54;7.40;99.90
17851;DHT22;9051;51.548;14.348;2022-12-29T02:44:34;7.40;99.90
17851;DHT22;9051;51.548;14.348;2022-12-29T02:47:14;7.50;99.90
17851;DHT22;9051;51.548;14.348;2022-12-29T02:49:51;7.50;99.90
17851;DHT22;9051;51.548;14.348;2022-12-29T02:52:27;7.50;99.90
17851;DHT22;9051;51.548;14.348;2022-12-29T02:55:00;7.60;99.90
17851;DHT22;9051;51.548;14.348;2022-12-29T02:57:34;7.60;99.90
17851;DHT22;9051;51.548;14.348;2022-12-29T03:00:22;7.60;99.90
17851;DHT22;9051;51.548;14.348;2022-12-29T03:03:11;7.60;99.90
17851;DHT22;9051;51.548;14.348;2022-12-29T03:06:08;7.60;99.90
17851;DHT22;9051;51.548;14.348;2022-12-29T03:08:51;7.60;99.90
17851;DHT22;9051;51.548;14.348;2022-12-29T03:11:30;7.60;99.90
17851;DHT22;9051;51.548;14.348;2022-12-29T03:14:27;7.60;99.90
17851;DHT22;9051;51.548;14.348;2022-12-29T03:17:25;7.60;99.90
17851;DHT22;9051;51.548;14.348;2022-12-29T03:20:07;7.70;99.90
17851;DHT22;9051;51.548;14.348;2022-12-29T03:22:46;7.70;99.90
17851;DHT22;9051;51.548;14.348;2022-12-29T03:25:28;7.80;99.90
17851;DHT22;9051;51.548;14.348;2022-12-29T03:28:07;7.80;99.90
17851;DHT22;9051;51.548;14.348;2022-12-29T03:30:47;7.70;99.90
17851;DHT22;9051;51.548;14.348;2022-12-29T03:33:25;7.80;99.90
17851;DHT22;9051;51.548;14.348;2022-12-29T03:36:08;7.80;99.90
17851;DHT22;9051;51.548;14.348;2022-12-29T03:38:46;7.80;99.90
17851;DHT22;9051;51.548;14.348;2022-12-29T03:41:27;7.80;99.90
17851;DHT22;9051;51.548;14.348;2022-12-29T03:44:05;7.80;99.90
17851;DHT22;9051;51.548;14.348;2022-12-29T03:46:38;7.80;99.90
17851;DHT22;9051;51.548;14.348;2022-12-29T03:49:11;7.80;99.90
17851;DHT22;9051;51.548;14.348;2022-12-29T03:51:45;7.80;99.90
17851;DHT22;9051;51.548;14.348;2022-12-29T03:54:17;7.80;99.90
17851;DHT22;9051;51.548;14.348;2022-12-29T03:56:49;7.80;99.90
17851;DHT22;9051;51.548;14.348;2022-12-29T03:59:32;7.80;99.90
17851;DHT22;9051;51.548;14.348;2022-12-29T04:02:05;7.80;99.90
17851;DHT22;9051;51.548;14.348;2022-12-29T04:04:38;7.70;99.90
17851;DHT22;9051;51.548;14.348;2022-12-29T04:07:13;7.70;99.90
17851;DHT22;9051;51.548;14.348;2022-12-29T04:09:46;7.70;99.90
17851;DHT22;9051;51.548;14.348;2022-12-29T04:12:25;7.70;99.90
17851;DHT22;9051;51.548;14.348;2022-12-29T04:14:57;7.70;99.90
17851;DHT22;9051;51.548;14.348;2022-12-29T04:17:29;7.70;99.90
17851;DHT22;9051;51.548;14.348;2022-12-29T04:20:02;7.70;99.90
17851;DHT22;9051;51.548;14.348;2022-12-29T04:22:50;7.70;99.90
17851;DHT22;9051;51.548;14.348;2022-12-29T04:25:30;7.70;99.90
17851;DHT22;9051;51.548;14.348;2022-12-29T04:28:04;7.70;99.90
17851;DHT22;9051;51.548;14.348;2022-12-29T04:30:48;7.70;99.90
17851;DHT22;9051;51.548;14.348;2022-12-29T04:33:28;7.70;99.90
17851;DHT22;9051;51.548;14.348;2022-12-29T04:36:03;7.60;99.90
17851;DHT22;9051;51.548;14.348;2022-12-29T04:38:36;7.60;99.90
17851;DHT22;9051;51.548;14.348;2022-12-29T04:41:09;7.60;99.90
17851;DHT22;9051;51.548;14.348;2022-12-29T04:43:43;7.60;99.90
17851;DHT22;9051;51.548;14.348;2022-12-29T04:46:55;7.70;99.90
17851;DHT22;9051;51.548;14.348;2022-12-29T04:49:42;7.70;99.90
17851;DHT22;9051;51.548;14.348;2022-12-29T04:52:33;7.70;99.90
17851;DHT22;9051;51.548;14.348;2022-12-29T04:55:08;7.70;99.90
17851;DHT22;9051;51.548;14.348;2022-12-29T04:57:40;7.70;99.90
17851;DHT22;9051;51.548;14.348;2022-12-29T05:00:18;7.70;99.90
17851;DHT22;9051;51.548;14.348;2022-12-29T05:02:51;7.70;99.90
17851;DHT22;9051;51.548;14.348;2022-12-29T05:05:23;7.70;99.90
17851;DHT22;9051;51.548;14.348;2022-12-29T05:07:56;7.80;99.90
17851;DHT22;9051;51.548;14.348;2022-12-29T05:10:30;7.80;99.90
17851;DHT22;9051;51.548;14.348;2022-12-29T05:13:06;7.90;99.90
17851;DHT22;9051;51.548;14.348;2022-12-29T05:15:39;8.00;99.90
17851;DHT22;9051;51.548;14.348;2022-12-29T05:18:12;8.00;99.90
17851;DHT22;9051;51.548;14.348;2022-12-29T05:20:44;8.10;99.90
17851;DHT22;9051;51.548;14.348;2022-12-29T05:23:16;8.20;99.90
17851;DHT22;9051;51.548;14.348;2022-12-29T05:25:54;8.20;99.90
17851;DHT22;9051;51.548;14.348;2022-12-29T05:28:37;8.20;99.90
17851;DHT22;9051;51.548;14.348;2022-12-29T05:31:17;8.30;99.90
17851;DHT22;9051;51.548;14.348;2022-12-29T05:33:48;8.30;99.90
17851;DHT22;9051;51.548;14.348;2022-12-29T05:36:22;8.30;99.90
17851;DHT22;9051;51.548;14.348;2022-12-29T05:38:58;8.30;99.90
17851;DHT22;9051;51.548;14.348;2022-12-29T05:41:31;8.20;99.90
17851;DHT22;9051;51.548;14.348;2022-12-29T05:44:26;8.10;99.90
17851;DHT22;9051;51.548;14.348;2022-12-29T05:47:31;8.10;99.90
17851;DHT22;9051;51.548;14.348;2022-12-29T05:50:19;8.10;99.90
17851;DHT22;9051;51.548;14.348;2022-12-29T05:53:12;8.10;99.90
17851;DHT22;9051;51.548;14.348;2022-12-29T05:55:47;8.00;99.90
17851;DHT22;9051;51.548;14.348;2022-12-29T05:58:21;8.00;99.90
17851;DHT22;9051;51.548;14.348;2022-12-29T06:00:54;8.00;99.90
17851;DHT22;9051;51.548;14.348;2022-12-29T06:03:28;8.00;99.90
17851;DHT22;9051;51.548;14.348;2022-12-29T06:06:01;8.00;99.90
17851;DHT22;9051;51.548;14.348;2022-12-29T06:08:33;7.90;99.90
17851;DHT22;9051;51.548;14.348;2022-12-29T06:11:06;7.90;99.90
17851;DHT22;9051;51.548;14.348;2022-12-29T06:13:39;7.90;99.90
17851;DHT22;9051;51.548;14.348;2022-12-29T06:16:11;7.90;99.90
17851;DHT22;9051;51.548;14.348;2022-12-29T06:18:44;7.80;99.90
17851;DHT22;9051;51.548;14.348;2022-12-29T06:21:17;7.80;99.90
17851;DHT22;9051;51.548;14.348;2022-12-29T06:23:50;7.80;99.90
17851;DHT22;9051;51.548;14.348;2022-12-29T06:26:22;7.70;99.90
17851;DHT22;9051;51.548;14.348;2022-12-29T06:28:58;7.70;99.90
17851;DHT22;9051;51.548;14.348;2022-12-29T06:31:31;7.70;99.90
17851;DHT22;9051;51.548;14.348;2022-12-29T06:34:04;7.70;99.90
17851;DHT22;9051;51.548;14.348;2022-12-29T06:36:36;7.70;99.90
17851;DHT22;9051;51.548;14.348;2022-12-29T06:39:10;7.60;99.90
17851;DHT22;9051;51.548;14.348;2022-12-29T06:41:42;7.70;99.90
17851;DHT22;9051;51.548;14.348;2022-12-29T06:44:38;7.60;99.90
17851;DHT22;9051;51.548;14.348;2022-12-29T06:47:14;7.70;99.90
17851;DHT22;9051;51.548;14.348;2022-12-29T06:49:46;7.70;99.90
17851;DHT22;9051;51.548;14.348;2022-12-29T06:52:18;7.70;99.90
17851;DHT22;9051;51.548;14.348;2022-12-29T06:54:50;7.70;99.90
17851;DHT22;9051;51.548;14.348;2022-12-29T06:57:22;7.70;99.90
17851;DHT22;9051;51.548;14.348;2022-12-29T06:59:55;7.80;99.90
17851;DHT22;9051;51.548;14.348;2022-12-29T07:02:27;7.70;99.90
17851;DHT22;9051;51.548;14.348;2022-12-29T07:04:59;7.70;99.90
17851;DHT22;9051;51.548;14.348;2022-12-29T07:07:31;7.70;99.90
17851;DHT22;9051;51.548;14.348;2022-12-29T07:10:03;7.60;99.90
17851;DHT22;9051;51.548;14.348;2022-12-29T07:12:36;7.60;99.90
17851;DHT22;9051;51.548;14.348;2022-12-29T07:15:10;7.60;99.90
17851;DHT22;9051;51.548;14.348;2022-12-29T07:17:43;7.60;99.90
17851;DHT22;9051;51.548;14.348;2022-12-29T07:20:15;7.50;99.90
17851;DHT22;9051;51.548;14.348;2022-12-29T07:22:47;7.50;99.90
17851;DHT22;9051;51.548;14.348;2022-12-29T07:25:19;7.50;99.90
17851;DHT22;9051;51.548;14.348;2022-12-29T07:27:50;7.50;99.90
17851;DHT22;9051;51.548;14.348;2022-12-29T07:30:24;7.50;99.90
17851;DHT22;9051;51.548;14.348;2022-12-29T07:32:56;7.40;99.90
17851;DHT22;9051;51.548;14.348;2022-12-29T07:35:29;7.40;99.90
17851;DHT22;9051;51.548;14.348;2022-12-29T07:38:01;7.40;99.90
17851;DHT22;9051;51.548;14.348;2022-12-29T07:40:33;7.40;99.90
17851;DHT22;9051;51.548;14.348;2022-12-29T07:43:06;7.30;99.90
17851;DHT22;9051;51.548;14.348;2022-12-29T07:45:45;7.30;99.90
17851;DHT22;9051;51.548;14.348;2022-12-29T07:48:17;7.30;99.90
17851;DHT22;9051;51.548;14.348;2022-12-29T07:50:49;7.30;99.90
17851;DHT22;9051;51.548;14.348;2022-12-29T07:53:21;7.30;99.90
17851;DHT22;9051;51.548;14.348;2022-12-29T07:55:54;7.30;99.90
17851;DHT22;9051;51.548;14.348;2022-12-29T07:58:26;7.40;99.90
17851;DHT22;9051;51.548;14.348;2022-12-29T08:00:59;7.40;99.90
17851;DHT22;9051;51.548;14.348;2022-12-29T08:03:31;7.40;99.90
17851;DHT22;9051;51.548;14.348;2022-12-29T08:06:04;7.60;99.90
17851;DHT22;9051;51.548;14.348;2022-12-29T08:08:35;7.50;99.90
17851;DHT22;9051;51.548;14.348;2022-12-29T08:11:07;7.50;99.90
17851;DHT22;9051;51.548;14.348;2022-12-29T08:13:41;7.60;99.90
17851;DHT22;9051;51.548;14.348;2022-12-29T08:16:14;7.60;99.90
17851;DHT22;9051;51.548;14.348;2022-12-29T08:18:46;7.70;99.90
17851;DHT22;9051;51.548;14.348;2022-12-29T08:21:18;7.70;99.90
17851;DHT22;9051;51.548;14.348;2022-12-29T08:23:50;7.80;99.90
17851;DHT22;9051;51.548;14.348;2022-12-29T08:26:23;8.00;99.90
17851;DHT22;9051;51.548;14.348;2022-12-29T08:28:55;8.00;99.90
17851;DHT22;9051;51.548;14.348;2022-12-29T08:31:28;8.10;99.90
17851;DHT22;9051;51.548;14.348;2022-12-29T08:34:01;8.10;99.90
17851;DHT22;9051;51.548;14.348;2022-12-29T08:36:33;8.20;99.90
17851;DHT22;9051;51.548;14.348;2022-12-29T08:39:06;8.20;99.90
17851;DHT22;9051;51.548;14.348;2022-12-29T08:41:38;8.10;99.90
17851;DHT22;9051;51.548;14.348;2022-12-29T08:44:09;8.20;99.90
17851;DHT22;9051;51.548;14.348;2022-12-29T08:46:43;8.30;99.90
17851;DHT22;9051;51.548;14.348;2022-12-29T08:49:17;8.30;99.90
17851;DHT22;9051;51.548;14.348;2022-12-29T08:51:50;8.30;99.90
17851;DHT22;9051;51.548;14.348;2022-12-29T08:54:22;8.30;99.90
17851;DHT22;9051;51.548;14.348;2022-12-29T08:56:54;8.30;99.90
17851;DHT22;9051;51.548;14.348;2022-12-29T08:59:33;8.40;99.90
17851;DHT22;9051;51.548;14.348;2022-12-29T09:02:10;8.40;99.90
17851;DHT22;9051;51.548;14.348;2022-12-29T09:04:43;8.40;99.90
17851;DHT22;9051;51.548;14.348;2022-12-29T09:07:16;8.50;99.90
17851;DHT22;9051;51.548;14.348;2022-12-29T09:09:48;8.50;99.90
17851;DHT22;9051;51.548;14.348;2022-12-29T09:12:21;8.60;99.90
17851;DHT22;9051;51.548;14.348;2022-12-29T09:14:54;8.60;99.90
17851;DHT22;9051;51.548;14.348;2022-12-29T09:17:27;8.70;99.90
17851;DHT22;9051;51.548;14.348;2022-12-29T09:20:18;8.70;99.90
17851;DHT22;9051;51.548;14.348;2022-12-29T09:22:50;8.80;99.90
17851;DHT22;9051;51.548;14.348;2022-12-29T09:25:22;8.80;99.90
17851;DHT22;9051;51.548;14.348;2022-12-29T09:27:55;8.80;99.90
17851;DHT22;9051;51.548;14.348;2022-12-29T09:30:27;8.90;99.90
17851;DHT22;9051;51.548;14.348;2022-12-29T09:33:03;9.00;99.90
17851;DHT22;9051;51.548;14.348;2022-12-29T09:35:35;9.00;99.90
17851;DHT22;9051;51.548;14.348;2022-12-29T09:38:07;9.00;99.90
17851;DHT22;9051;51.548;14.348;2022-12-29T09:40:39;9.00;99.90
17851;DHT22;9051;51.548;14.348;2022-12-29T09:43:26;9.00;99.90
17851;DHT22;9051;51.548;14.348;2022-12-29T09:46:11;9.10;99.90
17851;DHT22;9051;51.548;14.348;2022-12-29T09:49:04;9.10;99.90
17851;DHT22;9051;51.548;14.348;2022-12-29T09:51:39;9.20;99.90
17851;DHT22;9051;51.548;14.348;2022-12-29T09:54:23;9.20;99.90
17851;DHT22;9051;51.548;14.348;2022-12-29T09:56:56;9.20;99.90
17851;DHT22;9051;51.548;14.348;2022-12-29T09:59:38;9.30;99.90
17851;DHT22;9051;51.548;14.348;2022-12-29T10:02:21;9.30;99.90
17851;DHT22;9051;51.548;14.348;2022-12-29T10:04:57;9.40;99.90
17851;DHT22;9051;51.548;14.348;2022-12-29T10:07:38;9.40;99.90
17851;DHT22;9051;51.548;14.348;2022-12-29T10:10:23;9.50;99.90
17851;DHT22;9051;51.548;14.348;2022-12-29T10:13:16;9.50;99.90
17851;DHT22;9051;51.548;14.348;2022-12-29T10:15:57;9.60;99.90
17851;DHT22;9051;51.548;14.348;2022-12-29T10:18:51;9.70;99.90
17851;DHT22;9051;51.548;14.348;2022-12-29T10:21:38;9.80;99.90
17851;DHT22;9051;51.548;14.348;2022-12-29T10:24:13;9.90;99.90
17851;DHT22;9051;51.548;14.348;2022-12-29T10:26:46;10.00;99.90
17851;DHT22;9051;51.548;14.348;2022-12-29T10:29:20;10.10;99.90
17851;DHT22;9051;51.548;14.348;2022-12-29T10:31:57;10.10;99.90
17851;DHT22;9051;51.548;14.348;2022-12-29T10:34:34;10.20;99.90
17851;DHT22;9051;51.548;14.348;2022-12-29T10:37:17;10.20;99.90
17851;DHT22;9051;51.548;14.348;2022-12-29T10:39:53;10.30;99.90
17851;DHT22;9051;51.548;14.348;2022-12-29T10:42:28;10.40;99.90
17851;DHT22;9051;51.548;14.348;2022-12-29T10:45:00;10.50;99.90
17851;DHT22;9051;51.548;14.348;2022-12-29T10:47:36;10.50;99.90
17851;DHT22;9051;51.548;14.348;2022-12-29T10:50:12;10.60;99.90
17851;DHT22;9051;51.548;14.348;2022-12-29T10:52:47;10.70;99.90
17851;DHT22;9051;51.548;14.348;2022-12-29T10:55:24;10.90;99.90
17851;DHT22;9051;51.548;14.348;2022-12-29T10:58:02;11.00;99.90
17851;DHT22;9051;51.548;14.348;2022-12-29T11:00:36;11.10;99.90
17851;DHT22;9051;51.548;14.348;2022-12-29T11:03:39;11.20;99.90
17851;DHT22;9051;51.548;14.348;2022-12-29T11:06:17;11.30;99.90
17851;DHT22;9051;51.548;14.348;2022-12-29T11:08:57;11.30;99.90
17851;DHT22;9051;51.548;14.348;2022-12-29T11:11:34;11.30;99.90
17851;DHT22;9051;51.548;14.348;2022-12-29T11:14:12;11.40;99.90
17851;DHT22;9051;51.548;14.348;2022-12-29T11:16:44;11.50;99.90
17851;DHT22;9051;51.548;14.348;2022-12-29T11:19:21;11.50;99.90
17851;DHT22;9051;51.548;14.348;2022-12-29T11:21:54;11.60;99.90
17851;DHT22;9051;51.548;14.348;2022-12-29T11:24:29;11.60;99.90
17851;DHT22;9051;51.548;14.348;2022-12-29T11:27:13;11.70;99.90
17851;DHT22;9051;51.548;14.348;2022-12-29T11:29:47;11.70;99.90
17851;DHT22;9051;51.548;14.348;2022-12-29T11:32:21;11.60;99.90
17851;DHT22;9051;51.548;14.348;2022-12-29T11:34:53;11.60;99.90
17851;DHT22;9051;51.548;14.348;2022-12-29T11:37:29;11.60;99.90
17851;DHT22;9051;51.548;14.348;2022-12-29T11:40:05;11.60;99.90
17851;DHT22;9051;51.548;14.348;2022-12-29T11:42:41;11.50;99.90
17851;DHT22;9051;51.548;14.348;2022-12-29T11:45:20;11.50;99.90
17851;DHT22;9051;51.548;14.348;2022-12-29T11:47:56;11.40;99.90
17851;DHT22;9051;51.548;14.348;2022-12-29T11:50:30;11.40;99.90
17851;DHT22;9051;51.548;14.348;2022-12-29T11:53:05;11.30;99.90
17851;DHT22;9051;51.548;14.348;2022-12-29T11:55:40;11.30;99.90
17851;DHT22;9051;51.548;14.348;2022-12-29T11:58:16;11.20;99.90
17851;DHT22;9051;51.548;14.348;2022-12-29T12:00:49;11.20;99.90
17851;DHT22;9051;51.548;14.348;2022-12-29T12:03:24;11.20;99.90
17851;DHT22;9051;51.548;14.348;2022-12-29T12:06:00;11.20;99.90
17851;DHT22;9051;51.548;14.348;2022-12-29T12:08:36;11.20;99.90
17851;DHT22;9051;51.548;14.348;2022-12-29T12:11:14;11.20;99.90
17851;DHT22;9051;51.548;14.348;2022-12-29T12:13:53;11.30;99.90
17851;DHT22;9051;51.548;14.348;2022-12-29T12:16:35;11.30;99.90
17851;DHT22;9051;51.548;14.348;2022-12-29T12:19:15;11.20;99.90
17851;DHT22;9051;51.548;14.348;2022-12-29T12:21:56;11.30;99.90
17851;DHT22;9051;51.548;14.348;2022-12-29T12:24:39;11.30;99.90
17851;DHT22;9051;51.548;14.348;2022-12-29T12:27:20;11.30;99.90
17851;DHT22;9051;51.548;14.348;2022-12-29T12:29:57;11.20;99.90
17851;DHT22;9051;51.548;14.348;2022-12-29T12:32:39;11.30;99.90
17851;DHT22;9051;51.548;14.348;2022-12-29T12:35:16;11.20;99.90
17851;DHT22;9051;51.548;14.348;2022-12-29T13:00:17;11.50;99.90
17851;DHT22;9051;51.548;14.348;2022-12-29T13:02:59;11.50;99.90
17851;DHT22;9051;51.548;14.348;2022-12-29T13:06:01;11.50;99.90
17851;DHT22;9051;51.548;14.348;2022-12-29T13:08:54;11.60;99.90
17851;DHT22;9051;51.548;14.348;2022-12-29T13:11:38;11.60;99.90
17851;DHT22;9051;51.548;14.348;2022-12-29T13:14:20;11.60;99.90
17851;DHT22;9051;51.548;14.348;2022-12-29T13:17:04;11.70;99.90
17851;DHT22;9051;51.548;14.348;2022-12-29T13:19:41;11.70;99.90
17851;DHT22;9051;51.548;14.348;2022-12-29T13:22:21;11.70;99.90
17851;DHT22;9051;51.548;14.348;2022-12-29T13:25:15;11.60;99.90
17851;DHT22;9051;51.548;14.348;2022-12-29T13:27:54;11.60;99.90
17851;DHT22;9051;51.548;14.348;2022-12-29T13:30:32;11.60;99.90
17851;DHT22;9051;51.548;14.348;2022-12-29T13:33:14;11.70;99.90
17851;DHT22;9051;51.548;14.348;2022-12-29T13:35:55;11.80;99.90
17851;DHT22;9051;51.548;14.348;2022-12-29T13:38:34;11.80;99.90
17851;DHT22;9051;51.548;14.348;2022-12-29T13:41:09;11.80;99.90
17851;DHT22;9051;51.548;14.348;2022-12-29T13:43:43;11.90;99.90
17851;DHT22;9051;51.548;14.348;2022-12-29T13:46:21;11.90;99.90
17851;DHT22;9051;51.548;14.348;2022-12-29T13:48:58;12.10;99.90
17851;DHT22;9051;51.548;14.348;2022-12-29T13:51:32;12.20;99.90
17851;DHT22;9051;51.548;14.348;2022-12-29T13:54:12;12.20;99.90
17851;DHT22;9051;51.548;14.348;2022-12-29T13:56:52;12.10;99.90
17851;DHT22;9051;51.548;14.348;2022-12-29T13:59:34;12.20;99.90
17851;DHT22;9051;51.548;14.348;2022-12-29T14:02:19;12.20;99.90
17851;DHT22;9051;51.548;14.348;2022-12-29T14:05:00;12.20;99.90
17851;DHT22;9051;51.548;14.348;2022-12-29T14:07:37;12.20;99.90
17851;DHT22;9051;51.548;14.348;2022-12-29T14:10:27;12.30;99.90
17851;DHT22;9051;51.548;14.348;2022-12-29T14:13:03;12.30;99.90
17851;DHT22;9051;51.548;14.348;2022-12-29T14:15:38;12.30;99.90
17851;DHT22;9051;51.548;14.348;2022-12-29T14:18:14;12.30;99.90
17851;DHT22;9051;51.548;14.348;2022-12-29T14:20:54;12.30;99.90
17851;DHT22;9051;51.548;14.348;2022-12-29T14:23:35;12.20;99.90
17851;DHT22;9051;51.548;14.348;2022-12-29T14:26:14;12.20;99.90
17851;DHT22;9051;51.548;14.348;2022-12-29T14:28:47;12.20;99.90
17851;DHT22;9051;51.548;14.348;2022-12-29T14:31:40;12.20;99.90
17851;DHT22;9051;51.548;14.348;2022-12-29T14:34:29;12.10;99.90
17851;DHT22;9051;51.548;14.348;2022-12-29T14:37:03;12.00;99.90
17851;DHT22;9051;51.548;14.348;2022-12-29T14:39:37;12.00;99.90
17851;DHT22;9051;51.548;14.348;2022-12-29T14:42:13;12.00;99.90
17851;DHT22;9051;51.548;14.348;2022-12-29T14:44:50;12.00;99.90
17851;DHT22;9051;51.548;14.348;2022-12-29T14:47:27;12.00;99.90
17851;DHT22;9051;51.548;14.348;2022-12-29T14:50:04;11.90;99.90
17851;DHT22;9051;51.548;14.348;2022-12-29T14:52:46;11.90;99.90
17851;DHT22;9051;51.548;14.348;2022-12-29T14:55:37;11.90;99.90
17851;DHT22;9051;51.548;14.348;2022-12-29T14:58:15;11.90;99.90
17851;DHT22;9051;51.548;14.348;2022-12-29T15:00:49;11.90;99.90
17851;DHT22;9051;51.548;14.348;2022-12-29T15:03:23;11.90;99.90
17851;DHT22;9051;51.548;14.348;2022-12-29T15:05:58;11.90;99.90
17851;DHT22;9051;51.548;14.348;2022-12-29T15:08:35;11.90;99.90
17851;DHT22;9051;51.548;14.348;2022-12-29T15:11:13;11.80;99.90
17851;DHT22;9051;51.548;14.348;2022-12-29T15:13:45;11.90;99.90
17851;DHT22;9051;51.548;14.348;2022-12-29T15:16:24;11.90;99.90
17851;DHT22;9051;51.548;14.348;2022-12-29T15:18:56;12.00;99.90
17851;DHT22;9051;51.548;14.348;2022-12-29T15:21:31;12.00;99.90
17851;DHT22;9051;51.548;14.348;2022-12-29T15:24:05;12.00;99.90
17851;DHT22;9051;51.548;14.348;2022-12-29T15:26:39;12.00;99.90
17851;DHT22;9051;51.548;14.348;2022-12-29T15:29:35;12.10;99.90
17851;DHT22;9051;51.548;14.348;2022-12-29T15:32:17;12.10;99.90
17851;DHT22;9051;51.548;14.348;2022-12-29T15:34:51;12.20;99.90
17851;DHT22;9051;51.548;14.348;2022-12-29T15:37:24;12.20;99.90
17851;DHT22;9051;51.548;14.348;2022-12-29T15:39:58;12.30;99.90
17851;DHT22;9051;51.548;14.348;2022-12-29T15:42:49;12.30;99.90
17851;DHT22;9051;51.548;14.348;2022-12-29T15:45:27;12.40;99.90
17851;DHT22;9051;51.548;14.348;2022-12-29T15:48:00;12.30;99.90
17851;DHT22;9051;51.548;14.348;2022-12-29T15:50:34;12.30;99.90
17851;DHT22;9051;51.548;14.348;2022-12-29T15:53:10;12.20;99.90
17851;DHT22;9051;51.548;14.348;2022-12-29T15:55:44;12.20;99.90
17851;DHT22;9051;51.548;14.348;2022-12-29T15:58:20;12.20;99.90
17851;DHT22;9051;51.548;14.348;2022-12-29T16:00:54;12.10;99.90
17851;DHT22;9051;51.548;14.348;2022-12-29T16:03:32;12.10;99.90
17851;DHT22;9051;51.548;14.348;2022-12-29T16:06:10;12.00;99.90
17851;DHT22;9051;51.548;14.348;2022-12-29T16:08:42;12.00;99.90
17851;DHT22;9051;51.548;14.348;2022-12-29T16:11:23;12.00;99.90
17851;DHT22;9051;51.548;14.348;2022-12-29T16:13:59;11.90;99.90
17851;DHT22;9051;51.548;14.348;2022-12-29T16:16:34;12.00;99.90
17851;DHT22;9051;51.548;14.348;2022-12-29T16:19:12;12.00;99.90
17851;DHT22;9051;51.548;14.348;2022-12-29T16:21:45;11.90;99.90
17851;DHT22;9051;51.548;14.348;2022-12-29T16:24:19;11.80;99.90
17851;DHT22;9051;51.548;14.348;2022-12-29T16:27:02;11.80;99.90
17851;DHT22;9051;51.548;14.348;2022-12-29T16:29:53;11.80;99.90
17851;DHT22;9051;51.548;14.348;2022-12-29T16:32:28;11.80;99.90
17851;DHT22;9051;51.548;14.348;2022-12-29T16:35:11;11.80;99.90
17851;DHT22;9051;51.548;14.348;2022-12-29T16:37:44;11.80;99.90
17851;DHT22;9051;51.548;14.348;2022-12-29T16:40:25;11.80;99.90
17851;DHT22;9051;51.548;14.348;2022-12-29T16:43:00;11.80;99.90
17851;DHT22;9051;51.548;14.348;2022-12-29T16:46:16;11.80;99.90
17851;DHT22;9051;51.548;14.348;2022-12-29T16:48:52;11.80;99.90
17851;DHT22;9051;51.548;14.348;2022-12-29T16:51:30;11.70;99.90
17851;DHT22;9051;51.548;14.348;2022-12-29T16:54:03;11.70;99.90
17851;DHT22;9051;51.548;14.348;2022-12-29T16:56:36;11.70;99.90
17851;DHT22;9051;51.548;14.348;2022-12-29T16:59:26;11.60;99.90
17851;DHT22;9051;51.548;14.348;2022-12-29T17:02:01;11.60;99.90
17851;DHT22;9051;51.548;14.348;2022-12-29T17:04:37;11.70;99.90
17851;DHT22;9051;51.548;14.348;2022-12-29T17:07:16;11.70;99.90
17851;DHT22;9051;51.548;14.348;2022-12-29T17:09:48;11.70;99.90
17851;DHT22;9051;51.548;14.348;2022-12-29T17:12:23;11.70;99.90